Time;durP1;ratioP1;P1;durP2;ratioP2;P2;SDS_P1;SDS_P2;PMS_P1;PMS_P2;Temp;Humidity;BMP_temperature;BMP_pressure;BME280_temperature;BME280_humidity;BME280_pressure;Samples;Min_cycle;Max_cycle;Signal;HPM_P1;HPM_P2
2023/06/08 00:02:25;;;;;;;15.10;6.90;;;;;;;17.98;97.94;100261.93;89874;1265;1041397;-57
2023/06/08 00:06:49;;;;;;;14.50;7.70;;;;;;;17.87;98.78;100259.72;89715;1267;1040885;-57
2023/06/08 00:10:58;;;;;;;13.40;7.50;;;;;;;17.82;99.80;100257.20;89700;1264;1041240;-57
2023/06/08 00:15:01;;;;;;;17.30;7.80;;;;;;;17.71;100.00;100264.02;89768;1265;1041024;-57
2023/06/08 00:19:07;;;;;;;12.90;8.10;;;;;;;17.68;99.72;100259.92;89513;1265;1041364;-57
2023/06/08 00:23:10;;;;;;;14.30;8.10;;;;;;;17.54;100.00;100260.52;89465;1267;1041191;-56
2023/06/08 00:27:21;;;;;;;11.30;7.30;;;;;;;17.40;100.00;100260.50;89555;1269;1041234;-56
2023/06/08 00:31:25;;;;;;;16.10;8.30;;;;;;;17.37;100.00;100260.10;89611;1269;1040807;-57
2023/06/08 00:35:29;;;;;;;12.50;7.90;;;;;;;17.44;100.00;100256.09;89680;1269;1041343;-56
2023/06/08 00:39:32;;;;;;;9.40;8.40;;;;;;;17.31;100.00;100255.91;89721;1265;1040909;-57
2023/06/08 00:43:36;;;;;;;10.40;8.10;;;;;;;17.21;100.00;100251.09;89698;1266;1041326;-56
2023/06/08 00:47:40;;;;;;;24.10;8.10;;;;;;;17.08;100.00;100248.80;89788;1265;1041817;-56
2023/06/08 00:51:45;;;;;;;15.80;7.60;;;;;;;16.83;100.00;100247.12;89672;1265;1041595;-57
2023/06/08 00:55:54;;;;;;;15.70;9.20;;;;;;;16.62;100.00;100246.52;89803;1265;1040675;-57
2023/06/08 01:00:04;;;;;;;13.10;9.60;;;;;;;16.69;100.00;100242.95;89780;1265;1040792;-56
2023/06/08 01:04:18;;;;;;;17.80;9.80;;;;;;;16.78;100.00;100238.79;89765;1265;1040966;-57
2023/06/08 01:08:47;;;;;;;22.20;8.60;;;;;;;16.78;100.00;100241.57;89810;1266;1041382;-56
2023/06/08 01:13:25;;;;;;;14.30;9.20;;;;;;;16.81;100.00;100241.78;89737;1267;1040970;-57
2023/06/08 01:17:57;;;;;;;;;;;;;;;16.81;100.00;100239.08;89855;1265;1041105;-56
2023/06/08 01:22:26;;;;;;;23.90;9.00;;;;;;;16.86;100.00;100240.73;89770;1265;1041560;-56
2023/06/08 01:26:31;;;;;;;25.60;11.10;;;;;;;16.79;100.00;100241.64;89774;1265;1040778;-57
2023/06/08 01:30:35;;;;;;;18.90;9.20;;;;;;;16.83;100.00;100244.23;89732;1267;1040928;-56
2023/06/08 01:34:40;;;;;;;15.40;9.30;;;;;;;16.88;100.00;100245.66;89752;1265;1041262;-56
2023/06/08 01:38:56;;;;;;;13.70;8.20;;;;;;;16.95;100.00;100248.00;89728;1265;1041431;-57
2023/06/08 01:43:02;;;;;;;15.00;7.80;;;;;;;17.03;100.00;100243.92;89698;1267;1041637;-56
2023/06/08 01:47:16;;;;;;;17.20;9.60;;;;;;;17.15;99.71;100244.75;89915;1265;1040450;-56
2023/06/08 01:51:19;;;;;;;13.10;8.50;;;;;;;17.19;99.30;100244.70;89785;1270;1041399;-57
2023/06/08 01:55:27;;;;;;;;;;;;;;;17.21;97.65;100241.24;89789;1267;1042355;-57
2023/06/08 01:59:40;;;;;;;33.70;10.10;;;;;;;17.22;96.09;100236.06;89843;1269;1041237;-56
2023/06/08 02:03:43;;;;;;;20.80;9.20;;;;;;;17.23;95.87;100238.72;89794;1269;1039836;-56
2023/06/08 02:08:12;;;;;;;17.00;9.20;;;;;;;17.20;97.05;100243.49;89699;1267;1041469;-57
2023/06/08 02:12:16;;;;;;;15.70;9.10;;;;;;;17.12;97.35;100240.59;89818;1265;1040759;-57
2023/06/08 02:16:22;;;;;;;14.10;7.30;;;;;;;17.15;97.56;100242.98;89766;1269;1041259;-56
2023/06/08 02:20:26;;;;;;;20.70;9.70;;;;;;;17.15;96.97;100239.17;89763;1265;1040681;-56
2023/06/08 02:24:33;;;;;;;48.30;27.20;;;;;;;17.24;97.22;100239.29;89717;1269;1040997;-57
2023/06/08 02:28:38;;;;;;;68.90;36.40;;;;;;;17.24;96.80;100242.96;89780;1267;1041459;-57
2023/06/08 02:32:45;;;;;;;49.70;30.20;;;;;;;17.10;96.70;100245.63;89739;1266;1040788;-56
2023/06/08 02:36:49;;;;;;;24.10;15.60;;;;;;;16.93;97.69;100253.45;89706;1265;1040625;-56
2023/06/08 02:45:54;;;;;;;30.40;13.00;;;;;;;16.62;99.49;100257.98;89827;1267;1041218;-56
2023/06/08 02:50:00;;;;;;;39.30;15.20;;;;;;;16.61;99.17;100259.02;89711;1269;1041206;-56
2023/06/08 02:54:04;;;;;;;26.70;13.10;;;;;;;16.50;99.68;100256.42;89785;1267;1043644;-56
2023/06/08 02:58:11;;;;;;;18.40;11.40;;;;;;;16.53;99.64;100255.33;89746;1267;1041655;-56
2023/06/08 03:02:14;;;;;;;16.40;11.00;;;;;;;16.63;98.76;100255.08;89768;1265;1041366;-56
2023/06/08 03:06:21;;;;;;;40.90;11.10;;;;;;;16.65;98.78;100254.94;89695;1267;1041058;-56
2023/06/08 03:10:24;;;;;;;18.20;10.60;;;;;;;16.71;98.39;100254.90;89746;1267;1041402;-56
2023/06/08 03:14:31;;;;;;;16.20;9.20;;;;;;;16.84;99.62;100261.77;89782;1265;1040502;-57
2023/06/08 03:19:04;;;;;;;23.90;11.30;;;;;;;16.89;100.00;100260.45;89856;1263;1041202;-57
2023/06/08 03:23:09;;;;;;;18.00;10.30;;;;;;;17.03;99.43;100255.71;89798;1265;1041560;-56
2023/06/08 03:28:12;;;;;;;11.40;9.70;;;;;;;17.15;99.96;100263.55;89855;1265;1041320;-56
2023/06/08 03:32:15;;;;;;;13.50;8.50;;;;;;;17.20;99.70;100267.48;89810;1264;1040966;-57
2023/06/08 03:36:33;;;;;;;23.30;9.60;;;;;;;17.32;99.87;100272.85;89864;1267;1040963;-56
2023/06/08 03:40:37;;;;;;;16.90;9.30;;;;;;;17.44;99.89;100277.60;89758;1267;1041195;-56
2023/06/08 03:44:50;;;;;;;16.20;8.70;;;;;;;17.51;99.88;100271.64;89657;1263;1041297;-56
2023/06/08 03:48:54;;;;;;;18.30;9.80;;;;;;;17.45;100.00;100272.31;89614;1265;1041531;-56
2023/06/08 03:52:59;;;;;;;17.50;8.40;;;;;;;17.40;100.00;100271.92;89691;1265;1040672;-56
2023/06/08 04:13:42;;;;;;;14.70;10.00;;;;;;;18.17;99.64;100284.75;174797;1282;581152;-55
2023/06/08 04:17:48;;;;;;;16.40;11.00;;;;;;;18.36;98.29;100279.18;179701;1267;275175;-56
2023/06/08 04:21:56;;;;;;;10.60;9.30;;;;;;;18.48;98.80;100283.42;179796;1267;43765;-55
2023/06/08 04:26:04;;;;;;;19.00;11.90;;;;;;;18.91;100.00;100283.80;179795;1267;43520;-56
2023/06/08 04:30:08;;;;;;;12.60;10.60;;;;;;;19.34;99.25;100282.73;179791;1267;44653;-56
2023/06/08 04:34:17;;;;;;;16.00;10.90;;;;;;;19.70;98.84;100280.67;179546;1267;45999;-56
2023/06/08 04:38:22;;;;;;;16.50;11.40;;;;;;;20.14;98.81;100281.80;179458;1267;57769;-56
2023/06/08 04:42:27;;;;;;;13.00;9.20;;;;;;;20.39;97.40;100284.36;180181;1266;44930;-56
2023/06/08 04:46:37;;;;;;;11.60;9.80;;;;;;;20.82;98.33;100284.84;180699;1261;43714;-57
2023/06/08 04:50:45;;;;;;;15.30;10.10;;;;;;;21.16;94.28;100285.10;180693;1260;43699;-56
2023/06/08 04:54:52;;;;;;;16.40;10.60;;;;;;;21.17;89.76;100285.08;180562;1260;45061;-56
2023/06/08 04:59:00;;;;;;;12.60;9.70;;;;;;;21.01;89.14;100286.41;180458;1261;59150;-56
2023/06/08 05:03:04;;;;;;;15.90;10.00;;;;;;;21.54;94.77;100292.72;180561;1260;43520;-56
2023/06/08 05:07:08;;;;;;;16.50;9.30;;;;;;;22.09;89.78;100292.66;180512;1260;43650;-56
2023/06/08 05:11:22;;;;;;;16.60;11.00;;;;;;;22.47;86.41;100293.92;180506;1260;44693;-56
2023/06/08 05:15:28;;;;;;;13.00;8.70;;;;;;;22.79;82.91;100298.55;180328;1259;45939;-56
2023/06/08 05:19:32;;;;;;;10.70;9.00;;;;;;;23.10;81.68;100296.58;180301;1260;59617;-56
2023/06/08 05:24:00;;;;;;;12.00;9.40;;;;;;;22.93;80.31;100300.61;180842;1257;45967;-56
2023/06/08 05:28:04;;;;;;;14.60;9.10;;;;;;;23.00;79.92;100302.61;180843;1257;48354;-56
2023/06/08 05:32:34;;;;;;;12.50;10.10;;;;;;;23.31;79.96;100298.08;180798;1257;44974;-56
2023/06/08 05:36:38;;;;;;;13.90;9.10;;;;;;;23.52;79.93;100296.91;180750;1257;44997;-56
2023/06/08 05:40:42;;;;;;;10.40;7.70;;;;;;;23.48;78.85;100296.00;180809;1257;57550;-56
2023/06/08 05:44:45;;;;;;;10.80;8.80;;;;;;;23.36;78.54;100297.06;180864;1256;43820;-57
2023/06/08 05:48:48;;;;;;;9.50;8.50;;;;;;;23.14;78.31;100292.77;180947;1257;44657;-57
2023/06/08 05:52:59;;;;;;;17.70;10.00;;;;;;;22.79;78.27;100295.85;180814;1256;43589;-56
2023/06/08 05:57:05;;;;;;;8.80;7.20;;;;;;;22.47;78.65;100297.94;180989;1256;45215;-57
2023/06/08 06:01:20;;;;;;;10.80;8.60;;;;;;;22.19;79.95;100303.37;181111;1256;58921;-56
2023/06/08 06:05:25;;;;;;;9.40;8.40;;;;;;;22.00;81.16;100302.50;180825;1256;43627;-57
2023/06/08 06:09:28;;;;;;;21.30;9.20;;;;;;;21.91;82.14;100307.29;180901;1256;43794;-57
2023/06/08 06:13:32;;;;;;;12.40;10.00;;;;;;;21.87;82.08;100306.23;180874;1256;44929;-56
2023/06/08 06:17:38;;;;;;;18.10;8.90;;;;;;;21.71;81.63;100311.88;180720;1255;45904;-57
2023/06/08 06:21:42;;;;;;;11.50;10.40;;;;;;;21.51;82.31;100305.39;180939;1257;59141;-57
2023/06/08 06:25:45;;;;;;;16.80;11.20;;;;;;;21.55;84.30;100303.55;180900;1256;44987;-58
2023/06/08 06:29:49;;;;;;;12.70;10.30;;;;;;;22.01;84.54;100305.62;180647;1257;44093;-57
2023/06/08 06:33:52;;;;;;;10.40;9.40;;;;;;;22.61;83.51;100302.09;180825;1256;46020;-57
2023/06/08 06:37:57;;;;;;;11.20;10.00;;;;;;;22.76;79.39;100304.27;181157;1255;43547;-58
2023/06/08 06:42:00;;;;;;;9.80;8.90;;;;;;;23.24;81.96;100298.38;181406;1256;57653;-56
2023/06/08 06:46:04;;;;;;;12.00;9.90;;;;;;;23.72;80.17;100300.11;181043;1257;44673;-56
2023/06/08 06:50:09;;;;;;;11.60;9.80;;;;;;;24.10;76.98;100298.35;180969;1257;45142;-56
2023/06/08 06:54:38;;;;;;;12.70;11.40;;;;;;;24.03;75.52;100293.86;180569;1256;44942;-56
2023/06/08 06:58:44;;;;;;;21.40;10.60;;;;;;;24.29;80.59;100296.68;180648;1257;45872;-58
2023/06/08 07:02:50;;;;;;;17.40;11.10;;;;;;;24.76;76.82;100294.05;180875;1256;58973;-57
2023/06/08 07:06:56;;;;;;;11.80;10.70;;;;;;;24.99;76.62;100299.04;180753;1256;46040;-57
2023/06/08 07:11:02;;;;;;;11.10;10.00;;;;;;;25.40;75.98;100295.84;180773;1257;44713;-57
2023/06/08 07:15:10;;;;;;;10.30;9.20;;;;;;;26.06;74.76;100297.34;180720;1256;43766;-57
2023/06/08 07:19:21;;;;;;;10.00;9.10;;;;;;;26.70;70.81;100296.13;180753;1256;44412;-57
2023/06/08 07:23:27;;;;;;;12.20;11.00;;;;;;;27.22;68.22;100294.88;180741;1256;57191;-58
2023/06/08 07:27:50;;;;;;;17.50;11.30;;;;;;;27.42;69.23;100295.01;180746;1256;44563;-57
2023/06/08 07:31:53;;;;;;;12.50;9.70;;;;;;;27.66;66.77;100291.17;180741;1259;43871;-57
2023/06/08 07:35:56;;;;;;;11.20;10.20;;;;;;;27.86;67.30;100286.21;180851;1257;45925;-57
2023/06/08 07:40:00;;;;;;;11.10;9.70;;;;;;;27.78;67.77;100284.18;180755;1256;43874;-57
2023/06/08 07:44:04;;;;;;;11.20;10.10;;;;;;;27.77;65.39;100283.40;180625;1256;59510;-57
2023/06/08 07:48:09;;;;;;;10.80;9.70;;;;;;;28.02;67.82;100281.17;180757;1256;44676;-57
2023/06/08 07:52:13;;;;;;;11.40;9.90;;;;;;;28.27;68.38;100285.56;180795;1256;43506;-61
2023/06/08 07:56:18;;;;;;;11.30;10.30;;;;;;;28.47;67.22;100282.75;180704;1256;45823;-62
2023/06/08 08:00:22;;;;;;;12.90;9.30;;;;;;;28.70;67.04;100284.04;180660;1256;43506;-61
2023/06/08 08:04:27;;;;;;;13.70;11.00;;;;;;;28.84;65.43;100282.62;180702;1260;58901;-62
2023/06/08 08:08:36;;;;;;;11.00;9.90;;;;;;;29.20;63.93;100278.48;180834;1256;43540;-63
2023/06/08 08:12:43;;;;;;;10.00;8.90;;;;;;;29.45;65.54;100273.98;180710;1256;43568;-62
2023/06/08 08:16:47;;;;;;;9.40;8.40;;;;;;;29.39;63.62;100273.93;180918;1256;43713;-63
2023/06/08 08:20:50;;;;;;;9.50;8.60;;;;;;;29.32;64.35;100272.78;180922;1256;43517;-63
2023/06/08 08:24:54;;;;;;;9.80;8.80;;;;;;;29.51;62.83;100272.76;180790;1256;57436;-61
2023/06/08 08:28:58;;;;;;;8.90;7.60;;;;;;;29.76;61.59;100274.83;181085;1256;43684;-62
2023/06/08 08:33:01;;;;;;;7.40;6.80;;;;;;;29.69;57.78;100275.57;180955;1256;43855;-62
2023/06/08 08:37:05;;;;;;;9.80;8.80;;;;;;;29.56;58.44;100273.80;180917;1256;43737;-63
2023/06/08 08:41:14;;;;;;;14.20;9.30;;;;;;;29.27;59.17;100273.10;180695;1257;44822;-61
2023/06/08 08:45:19;;;;;;;8.10;7.40;;;;;;;28.83;60.70;100276.80;180479;1256;59628;-61
2023/06/08 08:49:24;;;;;;;9.20;7.70;;;;;;;28.58;64.25;100278.59;180415;1256;45920;-61
2023/06/08 08:53:30;;;;;;;8.60;7.80;;;;;;;28.60;62.67;100277.48;180319;1256;44901;-60
2023/06/08 08:57:38;;;;;;;9.70;8.40;;;;;;;28.74;60.42;100275.64;180258;1257;45108;-61
2023/06/08 09:01:41;;;;;;;10.50;8.40;;;;;;;28.92;59.46;100275.58;180388;1256;44089;-61
2023/06/08 09:05:52;;;;;;;10.30;8.40;;;;;;;28.97;59.07;100269.52;180492;1256;58536;-62
2023/06/08 09:10:14;;;;;;;9.00;8.10;;;;;;;28.91;61.83;100266.25;180493;1257;43572;-61
2023/06/08 09:14:17;;;;;;;8.90;7.20;;;;;;;28.88;62.01;100266.73;180456;1256;45904;-61
2023/06/08 09:18:21;;;;;;;8.60;7.90;;;;;;;28.85;61.48;100265.21;180534;1256;43772;-61
2023/06/08 09:22:29;;;;;;;9.00;8.10;;;;;;;28.88;58.53;100257.93;180565;1256;45001;-61
2023/06/08 09:26:55;;;;;;;7.30;6.60;;;;;;;28.86;61.26;100254.34;180706;1257;60311;-61
2023/06/08 09:31:11;;;;;;;8.60;7.80;;;;;;;28.72;61.90;100253.27;180708;1256;45135;-63
2023/06/08 09:35:23;;;;;;;11.60;7.10;;;;;;;28.85;59.35;100247.83;180784;1256;43715;-62
2023/06/08 09:39:39;;;;;;;7.00;6.10;;;;;;;29.07;59.26;100241.20;180711;1260;46047;-61
2023/06/08 09:43:45;;;;;;;7.90;6.90;;;;;;;29.07;58.51;100238.63;180695;1256;43506;-61
2023/06/08 09:47:48;;;;;;;7.40;6.70;;;;;;;29.02;57.49;100234.39;180768;1256;57360;-61
2023/06/08 09:51:53;;;;;;;9.00;7.20;;;;;;;28.91;57.74;100233.61;180842;1256;43690;-62
2023/06/08 09:56:05;;;;;;;8.60;6.40;;;;;;;28.93;59.40;100226.20;180730;1256;43564;-61
2023/06/08 10:00:23;;;;;;;6.20;5.70;;;;;;;28.98;57.92;100220.48;180672;1256;46104;-61
2023/06/08 10:04:42;;;;;;;8.50;7.00;;;;;;;29.06;58.69;100215.66;180730;1256;46202;-61
2023/06/08 10:08:52;;;;;;;7.40;6.70;;;;;;;29.02;59.45;100218.80;180163;1256;57451;-63
2023/06/08 10:12:58;;;;;;;6.00;5.40;;;;;;;28.98;60.12;100212.05;180439;1256;45974;-63
2023/06/08 10:17:03;;;;;;;7.30;6.00;;;;;;;29.01;58.63;100213.45;180328;1257;44875;-63
2023/06/08 10:21:07;;;;;;;;;;;;;;;28.93;57.11;100210.23;180477;1257;43793;-63
2023/06/08 10:25:16;;;;;;;9.30;5.30;;;;;;;28.86;56.48;100211.55;180510;1256;44394;-63
2023/06/08 10:29:28;;;;;;;4.70;4.30;;;;;;;28.84;56.66;100216.65;180491;1256;57438;-64
2023/06/08 10:33:40;;;;;;;5.50;5.00;;;;;;;29.00;54.90;100210.48;180389;1256;46070;-63
2023/06/08 10:37:45;;;;;;;7.20;5.10;;;;;;;29.13;55.77;100213.75;180606;1256;43904;-64
2023/06/08 10:41:58;;;;;;;6.20;5.70;;;;;;;29.29;55.99;100212.87;180580;1256;45042;-64
2023/06/08 10:46:03;;;;;;;13.00;6.60;;;;;;;29.42;55.24;100210.76;180504;1256;45898;-64
2023/06/08 10:50:11;;;;;;;5.70;4.80;;;;;;;29.36;53.18;100208.32;180423;1257;58454;-64
2023/06/08 10:54:22;;;;;;;8.00;6.00;;;;;;;29.43;52.43;100209.84;180558;1256;46041;-64
2023/06/08 10:58:26;;;;;;;6.20;4.40;;;;;;;29.56;49.72;100205.52;180701;1256;43918;-64
2023/06/08 11:02:30;;;;;;;5.40;4.50;;;;;;;29.65;50.03;100202.77;180908;1256;45888;-64
2023/06/08 11:06:34;;;;;;;5.10;4.70;;;;;;;29.80;50.78;100195.27;180874;1256;45905;-64
2023/06/08 11:11:03;;;;;;;5.30;4.80;;;;;;;29.83;49.64;100193.79;180871;1255;59819;-63
2023/06/08 11:15:08;;;;;;;7.70;4.50;;;;;;;29.87;50.45;100189.84;180888;1256;46082;-64
2023/06/08 11:19:21;;;;;;;4.80;3.80;;;;;;;29.92;51.81;100186.09;181085;1255;43770;-64
2023/06/08 11:28:05;;;;;;;5.40;4.10;;;;;;;30.10;49.02;100180.77;181257;1256;44589;-65
2023/06/08 11:33:09;;;;;;;6.20;5.00;;;;;;;30.11;48.23;100175.89;180968;1259;57220;-65
2023/06/08 11:37:16;;;;;;;6.00;5.50;;;;;;;30.17;49.85;100163.34;180879;1255;46043;-64
2023/06/08 11:41:22;;;;;;;6.00;5.40;;;;;;;30.16;49.10;100152.14;180783;1254;45089;-64
2023/06/08 11:45:28;;;;;;;5.70;4.30;;;;;;;30.10;49.23;100144.40;180919;1256;43566;-64
2023/06/08 11:55:08;;;;;;;6.00;4.80;;;;;;;29.71;50.01;100130.72;143308;1266;58669;-61
2023/06/08 11:59:13;;;;;;;6.10;4.40;;;;;;;29.90;49.99;100123.40;180700;1256;46064;-61
2023/06/08 12:03:18;;;;;;;4.00;3.60;;;;;;;29.99;48.46;100113.24;180683;1256;43658;-61
2023/06/08 12:07:21;;;;;;;6.50;5.00;;;;;;;29.91;46.65;100108.11;181001;1256;43586;-62
2023/06/08 12:11:25;;;;;;;4.80;4.30;;;;;;;29.81;47.20;100108.23;181329;1256;43500;-61
2023/06/08 12:15:42;;;;;;;6.00;4.90;;;;;;;29.79;47.55;100108.93;180769;1257;58327;-61
2023/06/08 12:19:47;;;;;;;6.70;4.40;;;;;;;29.93;47.97;100107.64;180787;1256;44665;-61
2023/06/08 12:23:50;;;;;;;6.40;4.10;;;;;;;30.07;48.53;100099.84;180905;1256;45930;-61
2023/06/08 12:27:56;;;;;;;5.20;4.50;;;;;;;30.08;46.61;100100.35;180878;1255;44975;-61
2023/06/08 12:32:00;;;;;;;4.90;4.50;;;;;;;30.14;47.31;100103.09;180729;1256;45945;-61
2023/06/08 12:36:04;;;;;;;12.70;4.70;;;;;;;30.14;47.13;100094.91;180670;1257;58704;-61
2023/06/08 12:40:09;;;;;;;4.90;4.50;;;;;;;30.03;48.43;100099.80;180792;1256;43551;-61
2023/06/08 12:44:13;;;;;;;5.30;4.80;;;;;;;29.95;48.46;100099.83;180871;1256;44981;-61
2023/06/08 12:48:17;;;;;;;5.50;5.00;;;;;;;29.83;49.38;100101.47;180782;1256;45143;-61
2023/06/08 12:52:21;;;;;;;4.70;4.20;;;;;;;29.81;49.29;100096.23;180701;1256;43552;-61
2023/06/08 12:56:54;;;;;;;8.10;4.70;;;;;;;29.92;48.39;100086.30;180747;1256;58832;-61
2023/06/08 13:00:58;;;;;;;6.00;4.20;;;;;;;30.07;48.81;100085.04;180753;1256;43741;-61
2023/06/08 13:05:29;;;;;;;6.30;4.70;;;;;;;30.32;47.81;100081.01;180715;1256;46102;-61
2023/06/08 13:09:32;;;;;;;6.20;4.10;;;;;;;30.47;48.48;100071.06;180709;1257;46032;-62
2023/06/08 13:13:36;;;;;;;5.10;4.40;;;;;;;30.71;46.65;100068.05;180701;1257;43855;-62
2023/06/08 13:17:40;;;;;;;6.80;4.30;;;;;;;30.89;47.80;100068.37;180732;1256;58588;-61
2023/06/08 13:21:46;;;;;;;8.90;4.60;;;;;;;30.89;46.53;100069.09;180797;1256;45056;-61
2023/06/08 13:25:52;;;;;;;4.70;4.00;;;;;;;30.79;48.13;100068.54;180715;1256;45891;-61
2023/06/08 13:30:48;;;;;;;5.40;4.00;;;;;;;30.59;49.66;100066.65;180698;1256;44811;-61
2023/06/08 13:34:55;;;;;;;7.20;4.70;;;;;;;30.26;47.92;100064.72;180635;1257;45033;-61
2023/06/08 13:39:02;;;;;;;4.90;3.50;;;;;;;29.95;47.71;100067.03;180559;1256;57627;-61
2023/06/08 13:43:09;;;;;;;5.40;3.20;;;;;;;29.56;51.27;100070.49;180604;1256;46012;-61
2023/06/08 13:47:14;;;;;;;5.30;4.30;;;;;;;29.18;51.06;100067.85;180625;1256;43953;-61
2023/06/08 13:51:21;;;;;;;8.00;4.60;;;;;;;28.86;52.47;100062.60;180497;1256;45272;-61
2023/06/08 13:55:33;;;;;;;6.80;5.20;;;;;;;28.62;56.04;100066.51;180759;1257;43713;-62
2023/06/08 13:59:36;;;;;;;7.40;4.20;;;;;;;28.34;58.96;100061.18;180554;1256;59212;-61
2023/06/08 14:03:57;;;;;;;5.10;4.00;;;;;;;28.17;58.84;100055.19;180577;1256;46086;-58
2023/06/08 14:08:02;;;;;;;54.10;11.10;;;;;;;28.07;61.69;100046.77;180776;1256;44014;-59
2023/06/08 14:12:30;;;;;;;17.10;12.40;;;;;;;28.14;61.83;100041.36;180678;1256;46098;-58
2023/06/08 14:16:33;;;;;;;31.80;18.60;;;;;;;28.21;60.37;100035.10;180721;1256;43906;-58
2023/06/08 14:20:49;;;;;;;10.90;6.10;;;;;;;28.20;62.73;100034.55;180529;1256;58150;-58
2023/06/08 14:24:52;;;;;;;6.60;3.90;;;;;;;28.26;67.55;100030.92;180629;1256;45103;-58
2023/06/08 14:28:56;;;;;;;4.40;3.70;;;;;;;28.43;63.77;100026.06;180610;1256;43718;-58
2023/06/08 14:33:00;;;;;;;18.80;6.30;;;;;;;28.57;64.68;100024.19;180596;1256;45891;-58
2023/06/08 14:37:04;;;;;;;6.60;3.70;;;;;;;28.76;60.91;100022.65;180676;1256;45926;-58
2023/06/08 14:41:09;;;;;;;7.50;5.20;;;;;;;28.86;62.52;100019.29;180626;1256;58646;-59
2023/06/08 14:45:17;;;;;;;7.70;4.80;;;;;;;28.95;65.82;100011.13;180688;1256;43614;-58
2023/06/08 14:49:21;;;;;;;4.60;4.10;;;;;;;29.12;59.34;100007.45;180679;1256;44218;-59
2023/06/08 14:53:25;;;;;;;12.40;5.00;;;;;;;29.31;51.89;100000.02;180747;1256;44703;-59
2023/06/08 14:57:29;;;;;;;;;;;;;;;29.48;54.55;99992.12;180887;1257;43545;-59
2023/06/08 15:01:33;;;;;;;5.40;3.80;;;;;;;29.60;53.58;99994.91;180661;1257;58237;-58
2023/06/08 15:05:42;;;;;;;4.70;4.10;;;;;;;29.55;53.30;99994.00;180587;1257;44913;-58
2023/06/08 15:09:47;;;;;;;5.70;4.40;;;;;;;29.58;53.55;99991.39;180757;1257;45837;-59
2023/06/08 15:13:57;;;;;;;5.00;4.20;;;;;;;29.74;51.58;99983.30;180619;1257;45889;-59
2023/06/08 15:18:01;;;;;;;5.10;3.90;;;;;;;29.83;50.57;99979.48;180597;1257;46043;-60
2023/06/08 15:22:04;;;;;;;4.90;3.90;;;;;;;29.90;50.26;99973.73;180547;1258;57939;-59
2023/06/08 15:26:16;;;;;;;7.50;3.80;;;;;;;29.99;49.23;99971.37;180690;1257;45994;-59
2023/06/08 15:30:20;;;;;;;7.00;4.30;;;;;;;29.90;46.41;99971.26;180687;1259;44523;-59
2023/06/08 15:34:23;;;;;;;5.50;3.50;;;;;;;29.93;47.34;99969.73;180819;1257;44986;-60
2023/06/08 15:38:33;;;;;;;5.20;4.20;;;;;;;30.05;48.11;99968.86;180607;1257;44449;-59
2023/06/08 15:42:38;;;;;;;4.80;4.40;;;;;;;29.92;53.38;99961.06;180746;1257;58362;-60
2023/06/08 15:46:44;;;;;;;13.10;5.00;;;;;;;29.84;53.83;99961.89;180504;1257;46783;-59
2023/06/08 15:50:47;;;;;;;10.40;4.50;;;;;;;29.63;53.81;99960.42;180531;1257;46016;-59
2023/06/08 15:55:16;;;;;;;8.40;5.60;;;;;;;29.66;56.50;99959.01;180487;1257;43706;-58
2023/06/08 15:59:19;;;;;;;4.50;4.00;;;;;;;29.52;55.69;99960.20;180775;1256;43713;-59
2023/06/08 16:03:25;;;;;;;8.40;4.50;;;;;;;29.50;54.44;99959.48;180706;1256;58433;-59
2023/06/08 16:07:38;;;;;;;7.80;4.10;;;;;;;29.51;56.53;99954.77;180723;1256;45869;-59
2023/06/08 16:11:43;;;;;;;4.90;4.50;;;;;;;29.50;56.60;99948.31;180756;1256;43910;-59
2023/06/08 16:15:46;;;;;;;4.90;4.10;;;;;;;29.43;55.63;99949.17;180523;1256;290934;-59
2023/06/08 16:19:50;;;;;;;4.50;3.90;;;;;;;29.22;56.57;99955.46;180682;1256;46115;-59
2023/06/08 16:23:57;;;;;;;9.00;7.20;;;;;;;28.91;58.58;99950.38;180709;1257;59932;-60
2023/06/08 16:28:01;;;;;;;7.40;5.80;;;;;;;28.75;57.73;99947.64;180638;1256;45900;-61
2023/06/08 16:32:05;;;;;;;7.20;5.00;;;;;;;28.68;59.38;99943.95;180831;1255;45016;-61
2023/06/08 16:36:11;;;;;;;4.70;3.70;;;;;;;28.53;58.59;99940.70;180818;1256;45532;-61
2023/06/08 16:40:15;;;;;;;10.70;4.40;;;;;;;28.22;60.48;99932.80;180755;1256;43539;-62
2023/06/08 16:44:19;;;;;;;6.90;5.10;;;;;;;28.08;62.33;99933.45;180715;1256;58389;-61
2023/06/08 16:48:31;;;;;;;6.20;4.40;;;;;;;28.01;64.20;99933.63;180724;1256;43609;-61
2023/06/08 16:52:37;;;;;;;5.50;4.10;;;;;;;28.05;65.40;99931.01;180822;1256;45856;-61
2023/06/08 16:56:42;;;;;;;4.70;4.20;;;;;;;28.05;64.65;99931.51;180665;1256;45975;-61
2023/06/08 17:00:46;;;;;;;6.10;4.20;;;;;;;28.09;65.80;99938.29;180570;1256;45876;-60
2023/06/08 17:05:07;;;;;;;5.10;4.60;;;;;;;28.14;66.94;99941.48;180718;1256;59059;-60
2023/06/08 17:09:14;;;;;;;20.00;5.40;;;;;;;28.18;65.90;99941.61;180831;1256;44999;-60
2023/06/08 17:13:26;;;;;;;5.30;4.10;;;;;;;28.03;66.22;99941.09;180692;1256;44881;-60
2023/06/08 17:17:30;;;;;;;4.70;3.80;;;;;;;27.85;67.50;99940.44;180759;1256;43620;-61
2023/06/08 17:21:36;;;;;;;6.90;5.20;;;;;;;27.76;71.36;99935.15;180832;1256;43583;-60
2023/06/08 17:25:40;;;;;;;15.00;5.00;;;;;;;27.60;72.37;99938.36;180912;1256;59492;-61
2023/06/08 17:30:04;;;;;;;4.30;3.90;;;;;;;27.38;72.42;99938.00;180924;1256;43618;-61
2023/06/08 17:34:13;;;;;;;8.00;4.90;;;;;;;27.17;71.74;99943.75;180742;1256;45968;-60
2023/06/08 17:38:28;;;;;;;6.10;5.20;;;;;;;27.08;73.60;99945.33;180633;1257;45942;-61
2023/06/08 17:42:34;;;;;;;6.00;5.40;;;;;;;27.00;74.90;99941.80;180670;1256;45958;-61
2023/06/08 17:46:39;;;;;;;5.70;4.10;;;;;;;26.91;76.10;99940.14;180517;1256;58030;-60
2023/06/08 17:50:43;;;;;;;9.20;6.30;;;;;;;26.77;74.43;99944.07;180701;1256;44888;-60
2023/06/08 17:54:50;;;;;;;8.90;6.00;;;;;;;26.63;74.06;99943.34;180682;1256;44659;-60
2023/06/08 17:58:53;;;;;;;6.80;5.00;;;;;;;26.47;73.92;99946.01;180587;1257;45897;-60
2023/06/08 18:03:08;;;;;;;8.90;5.20;;;;;;;26.28;75.32;99946.13;180813;1256;43832;-60
2023/06/08 18:07:12;;;;;;;7.40;6.00;;;;;;;26.02;75.11;99950.05;180682;1257;59224;-60
2023/06/08 18:11:20;;;;;;;6.10;5.50;;;;;;;25.83;76.54;99951.99;180664;1256;45978;-60
2023/06/08 18:15:25;;;;;;;8.30;5.30;;;;;;;25.51;78.95;99950.93;180656;1256;46050;-59
2023/06/08 18:19:29;;;;;;;5.50;5.00;;;;;;;25.21;78.63;99952.83;180682;1256;43753;-59
2023/06/08 18:23:34;;;;;;;8.10;4.50;;;;;;;25.00;75.41;99955.68;180620;1260;45908;-59
2023/06/08 18:27:40;;;;;;;7.60;5.50;;;;;;;24.93;75.47;99959.02;180506;1260;58232;-59
2023/06/08 18:31:45;;;;;;;8.70;5.20;;;;;;;24.83;76.33;99964.73;180546;1256;46396;-59
2023/06/08 18:36:10;;;;;;;6.20;5.60;;;;;;;24.69;76.46;99968.16;180611;1257;43596;-59
2023/06/08 18:40:15;;;;;;;15.80;7.20;;;;;;;24.48;76.58;99969.89;180473;1256;46121;-59
2023/06/08 18:44:22;;;;;;;;;;;;;;;24.24;78.64;99971.61;180390;1256;46072;-59
2023/06/08 18:48:26;;;;;;;16.00;9.40;;;;;;;23.86;81.09;99968.00;180526;1257;59476;-59
2023/06/08 18:52:33;;;;;;;12.90;8.50;;;;;;;23.55;80.55;99970.15;180541;1256;45949;-58
2023/06/08 18:56:36;;;;;;;18.20;13.50;;;;;;;23.29;81.72;99972.95;180601;1256;45927;-59
2023/06/08 19:00:47;;;;;;;66.00;42.10;;;;;;;23.07;82.06;99975.83;180742;1256;45866;-59
2023/06/08 19:04:50;;;;;;;18.00;11.80;;;;;;;22.92;83.03;99980.40;180603;1256;43522;-58
2023/06/08 19:08:58;;;;;;;25.20;15.00;;;;;;;22.69;85.01;99983.16;180631;1260;60286;-58
2023/06/08 19:13:03;;;;;;;38.00;22.70;;;;;;;22.51;85.16;99991.98;180582;1256;44694;-59
2023/06/08 19:17:07;;;;;;;38.80;23.70;;;;;;;22.33;85.34;99991.16;180677;1256;43924;-59
2023/06/08 19:21:11;;;;;;;43.20;28.10;;;;;;;22.08;87.33;99993.41;180875;1256;44688;-59
2023/06/08 19:25:16;;;;;;;31.80;21.50;;;;;;;21.84;87.72;99992.55;180852;1256;43474;-59